Time;durP1;ratioP1;P1;durP2;ratioP2;P2;SDS_P1;SDS_P2;PMS_P1;PMS_P2;Temp;Humidity;BMP_temperature;BMP_pressure;BME280_temperature;BME280_humidity;BME280_pressure;Samples;Min_cycle;Max_cycle;Signal;HPM_P1;HPM_P2
2023/10/20 00:01:10;;;;;;;29.27;21.15;;;;;;;;;;6313258;22;20226;-91
2023/10/20 00:03:38;;;;;;;32.67;23.30;;;7.20;99.90;;;;;;6311136;22;20184;-91
2023/10/20 00:06:08;;;;;;;30.10;21.70;;;7.20;99.90;;;;;;6309339;22;20375;-91
2023/10/20 00:08:36;;;;;;;28.08;20.70;;;;;;;;;;6312097;22;20520;-92
2023/10/20 00:11:04;;;;;;;24.98;19.70;;;7.40;99.90;;;;;;6309199;22;20193;-90
2023/10/20 00:13:33;;;;;;;29.60;21.85;;;7.30;99.90;;;;;;6307211;22;20570;-90
2023/10/20 00:16:24;;;;;;;30.48;21.75;;;6.90;99.90;;;;;;6311156;22;20205;-92
2023/10/20 00:18:52;;;;;;;28.10;21.77;;;7.20;99.90;;;;;;6315596;22;20193;-88
2023/10/20 00:21:19;;;;;;;27.50;21.00;;;7.20;99.90;;;;;;6328251;22;20224;-88
2023/10/20 00:23:46;;;;;;;27.23;21.23;;;7.20;99.90;;;;;;6322997;22;20177;-88
2023/10/20 00:26:13;;;;;;;27.25;20.60;;;7.10;99.90;;;;;;6306830;22;20537;-89
2023/10/20 00:28:40;;;;;;;27.77;20.70;;;7.20;99.90;;;;;;6306054;22;20256;-88
2023/10/20 00:31:07;;;;;;;29.33;20.95;;;7.20;99.90;;;;;;6307106;22;20197;-89
2023/10/20 00:33:34;;;;;;;27.67;20.40;;;7.20;99.90;;;;;;6315572;22;20184;-85
2023/10/20 00:36:03;;;;;;;29.13;21.83;;;7.20;99.90;;;;;;6330767;22;20164;-83
2023/10/20 00:38:29;;;;;;;29.98;22.65;;;7.20;99.90;;;;;;6332613;22;20201;-84
2023/10/20 00:40:56;;;;;;;28.92;21.52;;;7.20;99.90;;;;;;6332866;22;20177;-85
2023/10/20 00:43:34;;;;;;;30.95;21.42;;;7.20;99.90;;;;;;6333163;22;20150;-83
2023/10/20 00:46:01;;;;;;;28.00;21.15;;;7.20;99.90;;;;;;6333136;22;20141;-87
2023/10/20 00:48:41;;;;;;;29.10;21.02;;;7.30;99.90;;;;;;6332883;22;20161;-88
2023/10/20 00:51:09;;;;;;;24.60;19.42;;;7.20;99.90;;;;;;6322958;22;20184;-87
2023/10/20 00:53:37;;;;;;;23.73;18.77;;;7.50;99.90;;;;;;6317957;22;20177;-88
2023/10/20 00:56:06;;;;;;;26.38;20.77;;;7.20;99.90;;;;;;6312532;22;20178;-88
2023/10/20 00:58:33;;;;;;;27.25;20.35;;;7.00;99.90;;;;;;6306659;22;20274;-88
2023/10/20 01:01:00;;;;;;;22.60;17.83;;;7.20;99.90;;;;;;6306224;22;20229;-88
2023/10/20 01:03:29;;;;;;;24.65;19.60;;;7.20;99.90;;;;;;6306598;22;20213;-88
2023/10/20 01:05:57;;;;;;;25.33;19.85;;;7.20;99.90;;;;;;6306362;22;20181;-88
2023/10/20 01:08:25;;;;;;;24.27;18.60;;;7.20;99.90;;;;;;6307265;22;20178;-89
2023/10/20 01:10:53;;;;;;;24.50;19.38;;;7.20;99.90;;;;;;6305231;22;20216;-88
2023/10/20 01:13:21;;;;;;;26.42;20.55;;;7.30;99.90;;;;;;6307443;22;20176;-89
2023/10/20 01:15:48;;;;;;;27.65;20.38;;;7.20;99.90;;;;;;6307379;22;20177;-88
2023/10/20 01:18:15;;;;;;;25.27;19.60;;;7.30;99.90;;;;;;6323616;22;20201;-87
2023/10/20 01:20:42;;;;;;;27.23;18.85;;;7.30;99.90;;;;;;6313648;22;20220;-90
2023/10/20 01:23:09;;;;;;;21.73;18.52;;;7.20;99.90;;;;;;6306561;22;20252;-89
2023/10/20 01:25:37;;;;;;;23.27;18.70;;;7.20;99.90;;;;;;6305876;22;20202;-89
2023/10/20 01:28:05;;;;;;;28.02;19.88;;;7.30;99.90;;;;;;6305782;22;20411;-89
2023/10/20 01:30:31;;;;;;;23.85;19.48;;;7.10;99.90;;;;;;6305787;22;20180;-89
2023/10/20 01:32:58;;;;;;;26.70;19.30;;;7.20;99.90;;;;;;6308619;22;20662;-88
2023/10/20 01:35:26;;;;;;;27.97;18.80;;;7.20;99.90;;;;;;6279972;22;20411;-88
2023/10/20 01:37:54;;;;;;;27.33;19.20;;;7.20;99.90;;;;;;6279412;22;20463;-88
2023/10/20 01:40:21;;;;;;;21.63;18.75;;;7.40;99.90;;;;;;6275651;22;20177;-89
2023/10/20 01:42:50;;;;;;;24.33;18.02;;;7.30;99.90;;;;;;6280791;22;20185;-88
2023/10/20 01:45:16;;;;;;;21.00;17.25;;;7.20;99.90;;;;;;6300872;22;20187;-86
2023/10/20 01:47:43;;;;;;;24.75;19.13;;;7.20;99.90;;;;;;6301782;22;20158;-86
2023/10/20 01:50:12;;;;;;;24.17;17.83;;;7.40;99.90;;;;;;6301460;22;20165;-88
2023/10/20 01:52:39;;;;;;;24.77;19.13;;;7.50;99.90;;;;;;6280108;22;20280;-90
2023/10/20 01:55:06;;;;;;;23.63;19.08;;;7.30;99.90;;;;;;6276469;22;20237;-89
2023/10/20 01:57:33;;;;;;;22.65;17.30;;;7.20;99.90;;;;;;6292465;22;20196;-88
2023/10/20 02:00:03;;;;;;;24.85;17.17;;;7.20;99.90;;;;;;6300384;22;20158;-88
2023/10/20 02:02:30;;;;;;;26.23;19.02;;;7.20;99.90;;;;;;6288035;22;20583;-88
2023/10/20 02:04:57;;;;;;;21.10;16.60;;;7.20;99.90;;;;;;6288316;22;20197;-88
2023/10/20 02:07:24;;;;;;;20.67;16.67;;;7.20;99.90;;;;;;6299729;22;20379;-88
2023/10/20 02:09:51;;;;;;;24.20;17.53;;;7.00;99.90;;;;;;6300198;22;20178;-88
2023/10/20 02:12:18;;;;;;;19.40;16.43;;;7.30;99.90;;;;;;6300061;22;20431;-89
2023/10/20 02:14:45;;;;;;;23.10;17.25;;;7.20;99.90;;;;;;6300765;22;20385;-89
2023/10/20 02:17:14;;;;;;;20.20;15.80;;;7.30;99.90;;;;;;6286600;22;20627;-88
2023/10/20 02:19:41;;;;;;;22.85;16.67;;;7.20;99.90;;;;;;6279264;22;20178;-88
2023/10/20 02:22:08;;;;;;;19.20;15.15;;;7.30;99.90;;;;;;6278127;22;20193;-89
2023/10/20 02:24:36;;;;;;;20.77;14.68;;;7.30;99.90;;;;;;6278407;22;20177;-89
2023/10/20 02:27:03;;;;;;;19.57;13.70;;;7.30;99.90;;;;;;6277174;22;20234;-88
2023/10/20 02:29:29;;;;;;;17.88;14.65;;;7.30;99.90;;;;;;6275600;22;20351;-89
2023/10/20 02:31:57;;;;;;;17.77;13.43;;;;;;;;;;6276410;22;20193;-89
2023/10/20 02:34:27;;;;;;;18.50;13.75;;;7.30;99.90;;;;;;6275373;22;20405;-89
2023/10/20 02:36:53;;;;;;;14.30;11.68;;;7.30;99.90;;;;;;6276016;22;20178;-89
2023/10/20 02:39:20;;;;;;;15.93;12.50;;;7.30;99.90;;;;;;6294012;22;20201;-90
2023/10/20 02:41:48;;;;;;;13.35;11.73;;;7.30;99.90;;;;;;6294861;22;20266;-90
2023/10/20 02:44:15;;;;;;;15.55;11.40;;;7.30;99.90;;;;;;6288204;22;20246;-90
2023/10/20 02:46:43;;;;;;;15.93;11.35;;;7.30;99.90;;;;;;6287152;22;20176;-89
2023/10/20 02:49:10;;;;;;;12.07;10.30;;;7.30;99.90;;;;;;6284024;22;20643;-88
2023/10/20 02:51:39;;;;;;;15.38;10.65;;;7.20;99.90;;;;;;6288690;22;20198;-88
2023/10/20 02:54:09;;;;;;;12.68;10.43;;;7.40;99.90;;;;;;6290464;22;20181;-89
2023/10/20 02:56:37;;;;;;;11.63;9.90;;;7.20;99.90;;;;;;6298138;22;20194;-88
2023/10/20 02:59:04;;;;;;;9.48;7.85;;;7.20;99.90;;;;;;6279471;22;20198;-88
2023/10/20 03:01:31;;;;;;;8.77;6.85;;;7.10;99.90;;;;;;6276702;22;20205;-88
2023/10/20 03:03:58;;;;;;;9.30;7.85;;;7.60;99.90;;;;;;6277735;22;20177;-89
2023/10/20 03:06:25;;;;;;;8.53;7.00;;;7.10;99.90;;;;;;6288046;22;20196;-86
2023/10/20 03:08:53;;;;;;;8.57;6.63;;;7.10;99.90;;;;;;6301082;22;20472;-87
2023/10/20 03:11:20;;;;;;;9.27;7.10;;;7.10;99.90;;;;;;6301089;22;20182;-86
2023/10/20 03:13:47;;;;;;;8.80;6.47;;;7.10;99.90;;;;;;6293132;22;20181;-87
2023/10/20 03:16:14;;;;;;;11.67;7.83;;;;;;;;;;6284045;22;20177;-88
2023/10/20 03:18:41;;;;;;;7.25;6.45;;;7.10;99.90;;;;;;6280866;22;20422;-87
2023/10/20 03:21:08;;;;;;;6.75;6.07;;;7.30;99.90;;;;;;6277957;22;20197;-88
2023/10/20 03:23:35;;;;;;;8.43;6.53;;;7.00;99.90;;;;;;6277000;22;20181;-87
2023/10/20 03:26:03;;;;;;;7.93;6.35;;;7.20;99.90;;;;;;6276513;22;20166;-88
2023/10/20 03:28:34;;;;;;;7.75;6.53;;;7.40;99.90;;;;;;6291301;22;20193;-87
2023/10/20 03:31:03;;;;;;;7.38;6.53;;;7.00;99.90;;;;;;6298140;22;20215;-87
2023/10/20 03:33:30;;;;;;;8.35;7.38;;;6.90;99.90;;;;;;6287545;22;20278;-88
2023/10/20 03:36:01;;;;;;;7.57;6.75;;;7.00;99.90;;;;;;6278060;22;20216;-88
2023/10/20 03:38:28;;;;;;;7.47;6.60;;;7.00;99.90;;;;;;6275628;22;20590;-89
2023/10/20 03:41:04;;;;;;;7.53;6.82;;;6.90;99.90;;;;;;6277280;22;20197;-88
2023/10/20 03:43:32;;;;;;;9.95;7.38;;;7.00;99.90;;;;;;6300724;22;20183;-86
2023/10/20 03:46:01;;;;;;;8.63;6.85;;;7.00;99.90;;;;;;6300914;22;20162;-87
2023/10/20 03:48:29;;;;;;;7.07;6.40;;;8.80;99.90;;;;;;6300263;22;20150;-87
2023/10/20 03:50:56;;;;;;;8.80;6.75;;;6.90;99.90;;;;;;6300662;22;20257;-86
2023/10/20 03:53:26;;;;;;;9.07;7.60;;;6.60;99.90;;;;;;6301015;22;20169;-86
2023/10/20 03:56:00;;;;;;;8.35;7.10;;;7.00;99.90;;;;;;6301119;22;20158;-86
2023/10/20 03:58:29;;;;;;;8.43;7.07;;;7.00;99.90;;;;;;6300145;22;20211;-86
2023/10/20 04:01:01;;;;;;;10.07;8.27;;;6.80;99.90;;;;;;6300476;22;20189;-88
2023/10/20 04:03:28;;;;;;;13.13;8.35;;;6.90;99.90;;;;;;6300536;22;20166;-87
2023/10/20 04:05:55;;;;;;;9.48;8.27;;;6.90;99.90;;;;;;6300670;22;20158;-89
2023/10/20 04:08:23;;;;;;;10.25;8.18;;;6.90;99.90;;;;;;6300429;22;20165;-86
2023/10/20 04:10:56;;;;;;;10.88;8.13;;;6.90;99.90;;;;;;6300687;22;20178;-88
2023/10/20 04:13:24;;;;;;;9.45;8.45;;;6.90;99.90;;;;;;6288913;22;20166;-89
2023/10/20 04:15:52;;;;;;;9.38;8.32;;;6.90;99.90;;;;;;6284129;22;20659;-89
2023/10/20 04:18:20;;;;;;;10.07;8.05;;;6.90;99.90;;;;;;6286140;22;20499;-89
2023/10/20 04:20:49;;;;;;;9.73;8.70;;;6.90;99.90;;;;;;6289244;22;20219;-88
2023/10/20 04:23:16;;;;;;;10.75;9.05;;;6.80;99.90;;;;;;6288220;22;20177;-87
2023/10/20 04:25:52;;;;;;;8.82;7.55;;;6.80;99.90;;;;;;6287163;22;20185;-88
2023/10/20 04:28:20;;;;;;;10.85;8.55;;;6.70;99.90;;;;;;6284785;22;20184;-88
2023/10/20 05:07:12;;;;;;;11.07;9.10;;;6.80;99.90;;;;;;6214065;22;20202;-88
2023/10/20 05:09:44;;;;;;;11.50;9.60;;;;;;;;;;6262448;22;20174;-90
2023/10/20 05:12:13;;;;;;;15.60;10.10;;;;;;;;;;6264897;22;20170;-90
2023/10/20 05:15:01;;;;;;;11.35;9.18;;;6.70;99.90;;;;;;6264429;23;20185;-89
2023/10/20 05:17:43;;;;;;;9.93;8.75;;;6.70;99.90;;;;;;6271256;22;20197;-90
2023/10/20 05:20:20;;;;;;;12.25;9.15;;;6.70;99.90;;;;;;6293777;22;20194;-90
2023/10/20 05:22:56;;;;;;;9.95;8.80;;;6.70;99.90;;;;;;6291310;22;20237;-91
2023/10/20 05:25:27;;;;;;;10.70;9.38;;;6.70;99.90;;;;;;6283924;22;20197;-90
2023/10/20 05:28:08;;;;;;;11.02;9.20;;;6.70;99.90;;;;;;6285366;22;20245;-90
2023/10/20 05:30:46;;;;;;;12.68;10.48;;;6.60;99.90;;;;;;6295939;22;20170;-91
2023/10/20 05:33:36;;;;;;;15.38;10.75;;;6.70;99.90;;;;;;6296538;22;20168;-89
2023/10/20 05:39:13;;;;;;;15.30;12.07;;;6.60;99.90;;;;;;6292830;22;20201;-88
2023/10/20 05:41:45;;;;;;;12.50;9.43;;;6.90;99.90;;;;;;6289989;22;20170;-90
2023/10/20 05:44:14;;;;;;;12.73;11.43;;;6.70;99.90;;;;;;6285425;22;20162;-90
2023/10/20 05:46:48;;;;;;;15.73;11.98;;;6.60;99.90;;;;;;6283933;22;20246;-90
2023/10/20 05:49:18;;;;;;;20.10;11.57;;;6.80;99.90;;;;;;6282596;22;20559;-90
2023/10/20 05:51:46;;;;;;;14.45;10.75;;;;;;;;;;6287071;22;20173;-90
2023/10/20 05:54:19;;;;;;;14.68;10.50;;;6.60;99.90;;;;;;6288541;22;20178;-90
2023/10/20 05:56:46;;;;;;;17.38;13.75;;;;;;;;;;6299290;22;20198;-90
2023/10/20 05:59:20;;;;;;;19.30;12.65;;;6.60;99.90;;;;;;6295437;22;20211;-90
2023/10/20 06:01:58;;;;;;;16.30;11.45;;;6.60;99.90;;;;;;6288075;22;20572;-90
2023/10/20 06:07:11;;;;;;;15.98;12.20;;;;;;;;;;6272280;22;20528;-89
2023/10/20 06:09:58;;;;;;;14.05;12.23;;;6.50;99.90;;;;;;6277361;22;20166;-89
2023/10/20 06:12:25;;;;;;;16.65;12.80;;;6.50;99.90;;;;;;6278102;22;20173;-90
2023/10/20 06:15:10;;;;;;;14.70;12.02;;;6.50;99.90;;;;;;6278752;22;20184;-89
2023/10/20 06:17:46;;;;;;;16.10;12.73;;;6.50;99.90;;;;;;6278081;22;20190;-89
2023/10/20 06:20:38;;;;;;;16.33;13.25;;;6.80;99.90;;;;;;6280981;22;20189;-89
2023/10/20 06:23:18;;;;;;;13.27;10.82;;;6.50;99.90;;;;;;6283801;22;20154;-90
2023/10/20 06:25:57;;;;;;;17.65;12.90;;;6.70;99.90;;;;;;6301049;22;20146;-89
2023/10/20 06:28:24;;;;;;;14.18;12.18;;;6.40;99.90;;;;;;6300879;22;20154;-89
2023/10/20 06:31:15;;;;;;;16.27;13.13;;;;;;;;;;6290286;22;20215;-89
2023/10/20 06:33:57;;;;;;;17.45;12.73;;;6.50;99.90;;;;;;6277340;22;20166;-89
2023/10/20 06:36:27;;;;;;;12.35;10.90;;;6.50;99.90;;;;;;6277770;22;20190;-89
2023/10/20 06:39:03;;;;;;;22.50;15.15;;;6.40;99.90;;;;;;6279229;22;20193;-89
2023/10/20 06:41:50;;;;;;;16.83;12.00;;;6.50;99.90;;;;;;6279684;22;20169;-89
2023/10/20 06:44:18;;;;;;;18.73;12.00;;;;;;;;;;6283489;22;20228;-89
2023/10/20 06:46:48;;;;;;;11.63;10.00;;;6.40;99.90;;;;;;6297318;22;20184;-89
2023/10/20 06:49:18;;;;;;;18.80;12.70;;;6.40;99.90;;;;;;6293321;22;20166;-89
2023/10/20 06:51:51;;;;;;;17.13;11.70;;;6.50;99.90;;;;;;6284265;22;20218;-89
2023/10/20 06:54:23;;;;;;;17.10;12.05;;;6.10;99.90;;;;;;6291786;22;20154;-89
2023/10/20 06:56:54;;;;;;;14.25;11.45;;;6.40;99.90;;;;;;6299291;22;20241;-89
2023/10/20 06:59:30;;;;;;;12.30;10.50;;;6.30;99.90;;;;;;6299898;22;20181;-89
2023/10/20 07:02:02;;;;;;;11.25;10.15;;;6.20;99.90;;;;;;6297228;22;20166;-90
2023/10/20 07:04:31;;;;;;;13.60;9.98;;;;;;;;;;6291424;22;20170;-90
2023/10/20 07:07:09;;;;;;;12.30;10.07;;;6.50;99.90;;;;;;6283532;22;20201;-89
2023/10/20 07:09:37;;;;;;;18.35;9.65;;;;;;;;;;6280543;22;20169;-90
2023/10/20 07:12:07;;;;;;;15.95;10.15;;;6.30;99.90;;;;;;6281556;22;20173;-89
2023/10/20 07:14:38;;;;;;;12.73;9.45;;;6.40;99.90;;;;;;6284628;22;20158;-89
2023/10/20 07:17:11;;;;;;;14.77;8.63;;;;;;;;;;6298696;22;20281;-89
2023/10/20 07:19:39;;;;;;;12.90;10.18;;;5.20;99.90;;;;;;6293049;22;20185;-90
2023/10/20 07:22:06;;;;;;;12.57;9.80;;;6.40;99.90;;;;;;6283676;22;20181;-90
2023/10/20 07:27:55;;;;;;;12.02;8.38;;;9.20;99.90;;;;;;6289643;22;20181;-90
2023/10/20 07:30:30;;;;;;;11.43;9.43;;;6.30;99.90;;;;;;6292945;22;20173;-90
2023/10/20 07:32:57;;;;;;;12.15;9.30;;;;;;;;;;6279279;22;20163;-90
2023/10/20 07:35:27;;;;;;;14.10;9.52;;;;;;;;;;6279957;22;20248;-91
2023/10/20 07:37:59;;;;;;;14.60;9.95;;;6.40;99.90;;;;;;6279258;22;20198;-90
2023/10/20 07:40:34;;;;;;;11.68;9.63;;;;;;;;;;6278797;22;20221;-90
2023/10/20 07:43:27;;;;;;;13.23;11.10;;;6.40;99.90;;;;;;6285299;22;20149;-92
2023/10/20 07:46:01;;;;;;;16.13;11.63;;;6.30;99.90;;;;;;6294829;22;20202;-90
2023/10/20 07:48:31;;;;;;;13.93;10.82;;;6.30;99.90;;;;;;6295810;22;20169;-90
2023/10/20 08:35:49;;;;;;;13.15;8.85;;;6.10;99.90;;;;;;6245163;22;20616;-89
2023/10/20 08:39:13;;;;;;;12.52;10.15;;;6.10;99.90;;;;;;6280168;22;20635;-91
2023/10/20 08:54:47;;;;;;;12.25;9.73;;;6.10;99.90;;;;;;6192387;23;20176;-89
2023/10/20 09:09:12;;;;;;;14.95;10.07;;;6.10;99.90;;;;;;6248037;22;20206;-91
2023/10/20 09:11:43;;;;;;;10.60;9.25;;;6.00;99.90;;;;;;6250880;22;20197;-92
2023/10/20 09:14:12;;;;;;;9.57;8.57;;;6.10;99.90;;;;;;6249798;23;20209;-90
2023/10/20 09:16:41;;;;;;;12.20;8.73;;;6.10;99.90;;;;;;6249832;23;20185;-89
2023/10/20 09:19:13;;;;;;;9.38;8.48;;;6.00;99.90;;;;;;6266784;22;20163;-89
2023/10/20 09:21:40;;;;;;;13.57;8.85;;;6.20;99.90;;;;;;6278677;22;20162;-90
2023/10/20 09:24:11;;;;;;;9.98;8.73;;;6.10;99.90;;;;;;6278221;22;20190;-89
2023/10/20 09:26:44;;;;;;;12.55;9.38;;;6.00;99.90;;;;;;6279583;22;20600;-90
2023/10/20 09:29:13;;;;;;;8.65;7.75;;;6.20;99.90;;;;;;6278465;22;20177;-90
2023/10/20 09:31:40;;;;;;;13.80;9.40;;;6.00;99.90;;;;;;6286246;22;20165;-91
2023/10/20 09:34:09;;;;;;;10.18;9.13;;;6.00;99.90;;;;;;6300762;22;20169;-90
2023/10/20 09:36:39;;;;;;;11.18;9.73;;;5.90;99.90;;;;;;6295860;22;20173;-89
2023/10/20 09:39:11;;;;;;;11.88;8.85;;;5.80;99.90;;;;;;6279595;22;20166;-89
2023/10/20 09:41:45;;;;;;;10.70;9.23;;;6.00;99.90;;;;;;6277257;22;20162;-86
2023/10/20 09:44:21;;;;;;;11.25;9.80;;;5.70;99.90;;;;;;6278605;22;20168;-87
2023/10/20 09:46:54;;;;;;;11.70;9.75;;;6.00;99.90;;;;;;6276376;22;20261;-86
2023/10/20 09:49:23;;;;;;;15.82;11.40;;;6.00;99.90;;;;;;6277366;22;20198;-87
2023/10/20 09:51:50;;;;;;;13.60;10.32;;;6.00;99.90;;;;;;6277064;22;20643;-87
2023/10/20 09:54:21;;;;;;;12.18;7.57;;;6.30;99.90;;;;;;6283052;22;20182;-88
2023/10/20 09:56:51;;;;;;;13.20;7.40;;;6.30;99.90;;;;;;6290658;22;20162;-88
2023/10/20 10:02:06;;;;;;;9.05;7.30;;;6.10;99.90;;;;;;6316866;22;20150;-87
2023/10/20 10:04:36;;;;;;;8.82;7.22;;;5.90;99.90;;;;;;6297156;22;20182;-87
2023/10/20 10:07:04;;;;;;;10.63;8.48;;;5.60;99.90;;;;;;6288963;22;20169;-89
2023/10/20 10:09:37;;;;;;;9.95;7.75;;;6.00;99.90;;;;;;6279430;22;20192;-89
2023/10/20 10:15:22;;;;;;;9.45;6.70;;;6.00;99.90;;;;;;6148918;22;20840;-89
2023/10/20 10:17:54;;;;;;;8.60;6.90;;;5.90;99.90;;;;;;6279043;22;20198;-89
2023/10/20 10:20:24;;;;;;;8.95;7.45;;;6.20;99.90;;;;;;6278458;22;20671;-89
2023/10/20 10:23:00;;;;;;;13.05;7.22;;;5.90;99.90;;;;;;6282957;22;20162;-88
2023/10/20 10:25:35;;;;;;;7.60;6.38;;;5.90;99.90;;;;;;6296997;22;20165;-88
2023/10/20 10:28:09;;;;;;;8.13;6.93;;;5.90;99.90;;;;;;6300373;22;20158;-88
2023/10/20 10:30:38;;;;;;;8.13;6.43;;;5.90;99.90;;;;;;6300154;22;20185;-88
2023/10/20 10:33:07;;;;;;;7.72;6.40;;;5.90;99.90;;;;;;6301356;22;20150;-89
2023/10/20 10:35:33;;;;;;;8.10;5.65;;;6.00;99.90;;;;;;6301451;22;20178;-88
2023/10/20 10:38:00;;;;;;;8.90;6.70;;;6.00;99.90;;;;;;6301509;22;20158;-87
2023/10/20 10:40:27;;;;;;;7.97;5.90;;;6.00;99.90;;;;;;6300873;22;20202;-86
2023/10/20 10:42:54;;;;;;;9.20;6.47;;;6.00;99.90;;;;;;6293242;22;20181;-89
2023/10/20 10:45:22;;;;;;;8.70;6.65;;;6.00;99.90;;;;;;6289798;22;20178;-88
2023/10/20 10:47:51;;;;;;;7.47;6.50;;;6.00;99.90;;;;;;6288409;22;20178;-88
2023/10/20 10:50:21;;;;;;;7.18;6.00;;;5.90;99.90;;;;;;6282500;22;20186;-89
2023/10/20 10:52:48;;;;;;;8.15;6.35;;;5.90;99.90;;;;;;6279090;22;20521;-88
2023/10/20 10:55:14;;;;;;;8.02;6.30;;;6.20;99.90;;;;;;6280167;22;20173;-89
2023/10/20 10:57:42;;;;;;;6.70;5.97;;;6.00;99.90;;;;;;6279952;22;20235;-88
2023/10/20 11:00:13;;;;;;;6.97;6.07;;;6.30;99.90;;;;;;6291896;22;20643;-89
2023/10/20 11:02:40;;;;;;;6.57;5.93;;;6.20;99.90;;;;;;6294056;22;20162;-88
2023/10/20 11:05:09;;;;;;;7.07;5.75;;;5.90;99.90;;;;;;6292670;22;20213;-88
2023/10/20 11:07:38;;;;;;;9.25;6.40;;;6.00;99.90;;;;;;6286156;22;20196;-87
2023/10/20 11:10:06;;;;;;;6.45;5.20;;;6.00;99.90;;;;;;6281404;22;20202;-88
2023/10/20 11:12:34;;;;;;;8.88;6.97;;;6.00;99.90;;;;;;6279664;22;20651;-88
2023/10/20 11:15:01;;;;;;;8.30;6.88;;;6.00;99.90;;;;;;6282382;22;20177;-88
2023/10/20 11:17:28;;;;;;;6.40;5.65;;;6.00;99.90;;;;;;6282594;22;20209;-88
2023/10/20 11:19:56;;;;;;;5.82;5.22;;;6.00;99.90;;;;;;6288071;22;20241;-87
2023/10/20 11:22:25;;;;;;;7.13;5.70;;;6.30;99.90;;;;;;6297809;22;20150;-88
2023/10/20 11:24:53;;;;;;;7.63;5.55;;;6.00;99.90;;;;;;6282940;22;20230;-88
2023/10/20 11:27:20;;;;;;;7.30;6.43;;;6.00;99.90;;;;;;6290947;22;20198;-89
2023/10/20 11:29:47;;;;;;;6.38;5.70;;;5.90;99.90;;;;;;6293240;22;20207;-88
2023/10/20 11:32:15;;;;;;;6.80;5.88;;;6.00;99.90;;;;;;6296245;22;20178;-88
2023/10/20 11:34:42;;;;;;;8.82;7.35;;;6.30;99.90;;;;;;6297742;22;20177;-87
2023/10/20 11:37:11;;;;;;;8.02;5.80;;;6.10;99.90;;;;;;6295541;22;20193;-88
2023/10/20 11:39:40;;;;;;;7.10;6.28;;;6.00;99.90;;;;;;6296977;22;20194;-88
2023/10/20 11:42:07;;;;;;;6.18;5.57;;;6.20;99.90;;;;;;6293450;22;20190;-88
2023/10/20 11:44:35;;;;;;;6.97;5.63;;;6.00;99.90;;;;;;6292396;22;20178;-89
2023/10/20 11:47:02;;;;;;;6.85;5.50;;;5.80;99.90;;;;;;6285378;22;20178;-88
2023/10/20 11:49:29;;;;;;;6.65;5.80;;;6.30;99.90;;;;;;6292949;22;20174;-87
2023/10/20 11:51:57;;;;;;;9.95;5.13;;;6.00;99.90;;;;;;6299543;22;20173;-89
2023/10/20 11:54:24;;;;;;;6.40;5.35;;;6.00;99.90;;;;;;6299932;22;20184;-88
2023/10/20 11:56:52;;;;;;;4.93;4.50;;;6.00;99.90;;;;;;6288426;22;20193;-88
2023/10/20 11:59:19;;;;;;;6.13;5.53;;;6.00;99.90;;;;;;6282598;22;20198;-88
2023/10/20 12:01:47;;;;;;;6.65;5.50;;;6.00;99.90;;;;;;6280739;22;20182;-88
2023/10/20 12:04:15;;;;;;;7.00;5.43;;;6.00;99.90;;;;;;6285814;22;20177;-89
2023/10/20 12:06:43;;;;;;;9.48;6.55;;;6.00;99.90;;;;;;6288015;22;20161;-87
2023/10/20 12:09:11;;;;;;;6.82;5.28;;;6.00;99.90;;;;;;6286804;22;20178;-87
2023/10/20 12:11:38;;;;;;;7.30;5.60;;;6.00;99.90;;;;;;6283936;22;20188;-88
2023/10/20 12:14:08;;;;;;;5.22;4.75;;;6.00;99.90;;;;;;6279060;22;20166;-88
2023/10/20 12:16:35;;;;;;;5.60;4.60;;;6.00;99.90;;;;;;6281266;22;20193;-87
2023/10/20 12:19:05;;;;;;;5.00;4.60;;;6.20;99.90;;;;;;6281821;22;20210;-88
2023/10/20 12:21:33;;;;;;;4.95;4.55;;;6.20;99.90;;;;;;6284692;22;20182;-88
2023/10/20 12:24:00;;;;;;;4.72;3.83;;;6.30;99.90;;;;;;6262493;23;20182;-87
2023/10/20 12:26:27;;;;;;;4.20;3.80;;;6.00;99.90;;;;;;6262557;22;20189;-87
2023/10/20 12:28:56;;;;;;;4.50;4.13;;;6.00;99.90;;;;;;6256236;23;20175;-88
2023/10/20 12:31:25;;;;;;;5.32;4.82;;;6.00;99.90;;;;;;6245611;23;20196;-88
2023/10/20 12:33:52;;;;;;;6.43;4.35;;;6.10;99.90;;;;;;6248779;23;20253;-88
2023/10/20 12:36:21;;;;;;;5.72;4.60;;;6.10;99.90;;;;;;6250142;23;20178;-88
2023/10/20 12:38:47;;;;;;;5.70;4.30;;;6.00;99.90;;;;;;6249317;23;20181;-88
2023/10/20 12:41:15;;;;;;;5.00;4.45;;;6.20;99.90;;;;;;6249570;23;20226;-89
2023/10/20 12:43:42;;;;;;;4.82;3.80;;;6.00;99.90;;;;;;6250864;23;20175;-88
2023/10/20 12:46:11;;;;;;;7.47;4.13;;;6.10;99.90;;;;;;6255903;23;20179;-87
2023/10/20 12:48:40;;;;;;;5.45;3.78;;;6.00;99.90;;;;;;6249305;22;20177;-88
2023/10/20 12:51:08;;;;;;;4.22;3.63;;;6.50;99.90;;;;;;6251098;23;20277;-88
2023/10/20 12:53:36;;;;;;;5.93;4.70;;;6.00;99.90;;;;;;6251290;23;20202;-88
2023/10/20 12:56:05;;;;;;;5.30;4.55;;;5.90;99.90;;;;;;6250273;23;20179;-88
2023/10/20 12:58:32;;;;;;;4.68;3.90;;;6.00;99.90;;;;;;6246793;23;20170;-88
2023/10/20 13:00:58;;;;;;;4.88;4.30;;;5.90;99.90;;;;;;6246708;23;20237;-88
2023/10/20 13:03:26;;;;;;;3.90;3.45;;;6.00;99.90;;;;;;6246842;23;20654;-88
2023/10/20 13:05:54;;;;;;;4.10;3.78;;;6.00;99.90;;;;;;6251816;23;20185;-87
2023/10/20 13:08:21;;;;;;;5.40;4.70;;;6.00;99.90;;;;;;6247460;23;20492;-88
2023/10/20 13:10:48;;;;;;;3.58;3.28;;;5.90;99.90;;;;;;6248941;23;20217;-88
2023/10/20 13:13:16;;;;;;;3.63;3.33;;;6.00;99.90;;;;;;6255179;23;20186;-87
2023/10/20 13:15:43;;;;;;;3.60;3.30;;;5.90;99.90;;;;;;6261327;22;20179;-87
2023/10/20 13:18:12;;;;;;;3.70;3.38;;;6.00;99.90;;;;;;6255583;23;20214;-87
2023/10/20 13:20:39;;;;;;;3.30;3.00;;;6.50;99.90;;;;;;6256391;23;20194;-86
2023/10/20 13:23:07;;;;;;;4.18;3.78;;;6.00;99.90;;;;;;6251283;23;20185;-87
2023/10/20 13:25:34;;;;;;;4.25;3.75;;;6.00;99.90;;;;;;6250228;22;20166;-88
2023/10/20 13:28:02;;;;;;;6.25;4.40;;;5.90;99.90;;;;;;6250133;22;20257;-88
2023/10/20 13:30:29;;;;;;;3.65;3.30;;;6.00;99.90;;;;;;6246998;23;20595;-88
2023/10/20 13:32:56;;;;;;;5.15;3.75;;;6.00;99.90;;;;;;6253875;23;20178;-89
2023/10/20 13:35:23;;;;;;;3.17;2.95;;;5.90;99.90;;;;;;6268778;22;20175;-88
2023/10/20 13:37:50;;;;;;;3.22;2.92;;;6.00;99.90;;;;;;6268198;22;20163;-87
2023/10/20 13:40:18;;;;;;;3.03;2.72;;;5.90;99.90;;;;;;6269468;22;20202;-87
2023/10/20 13:42:45;;;;;;;2.28;2.10;;;5.90;99.90;;;;;;6268561;22;20189;-86
2023/10/20 13:45:12;;;;;;;3.50;3.30;;;5.90;99.90;;;;;;6269865;22;20158;-87
2023/10/20 13:47:39;;;;;;;2.60;2.40;;;6.00;99.90;;;;;;6262080;23;20185;-87
2023/10/20 13:50:08;;;;;;;3.25;2.95;;;6.00;99.90;;;;;;6252381;23;20198;-89
2023/10/20 13:52:35;;;;;;;4.68;4.18;;;5.90;99.90;;;;;;6247931;22;20174;-89
2023/10/20 13:55:02;;;;;;;6.32;3.42;;;6.00;99.90;;;;;;6249591;23;20257;-89
2023/10/20 13:57:31;;;;;;;3.55;3.08;;;6.00;99.90;;;;;;6252265;23;20179;-88
2023/10/20 13:59:57;;;;;;;3.13;2.85;;;6.00;99.90;;;;;;6258765;23;20191;-88
2023/10/20 14:02:24;;;;;;;3.30;3.03;;;6.00;99.90;;;;;;6265460;23;20222;-87
2023/10/20 14:04:51;;;;;;;7.43;3.28;;;5.70;99.90;;;;;;6267013;23;20249;-87
2023/10/20 14:07:18;;;;;;;3.30;3.00;;;5.90;99.90;;;;;;6269419;22;20174;-88
2023/10/20 14:09:45;;;;;;;3.33;2.85;;;6.40;99.90;;;;;;6265624;23;20199;-88
2023/10/20 14:12:14;;;;;;;3.08;2.65;;;6.20;99.90;;;;;;6259547;23;20170;-88
2023/10/20 14:14:42;;;;;;;2.80;2.58;;;5.90;99.90;;;;;;6266600;23;20226;-87
2023/10/20 14:17:09;;;;;;;4.25;2.90;;;5.90;99.90;;;;;;6270554;22;20199;-87
2023/10/20 14:19:36;;;;;;;4.38;3.75;;;6.10;99.90;;;;;;6269858;22;20194;-87
2023/10/20 14:22:14;;;;;;;3.47;3.17;;;6.90;99.90;;;;;;6264325;23;20232;-89
2023/10/20 14:24:42;;;;;;;3.10;2.80;;;;;;;;;;6253036;23;20185;-88
2023/10/20 14:27:09;;;;;;;2.50;2.30;;;5.90;99.90;;;;;;6251962;22;20178;-87
2023/10/20 14:29:36;;;;;;;4.78;3.40;;;5.90;99.90;;;;;;6257202;23;20194;-88
2023/10/20 14:32:05;;;;;;;2.63;2.42;;;5.90;99.90;;;;;;6247204;23;20254;-87
2023/10/20 14:34:32;;;;;;;3.40;2.97;;;5.80;99.90;;;;;;6264131;22;20194;-88
2023/10/20 14:36:59;;;;;;;3.15;2.90;;;5.90;99.90;;;;;;6266914;22;20167;-86
2023/10/20 14:39:26;;;;;;;2.50;2.30;;;5.80;99.90;;;;;;6269897;22;20219;-87
2023/10/20 14:41:53;;;;;;;3.38;3.08;;;5.70;99.90;;;;;;6268695;23;20199;-87
2023/10/20 14:44:20;;;;;;;2.53;2.10;;;5.80;99.90;;;;;;6262063;23;20482;-87
2023/10/20 14:46:46;;;;;;;3.00;2.80;;;5.60;99.90;;;;;;6256728;23;20179;-88
2023/10/20 14:49:15;;;;;;;3.60;2.92;;;5.50;99.90;;;;;;6255246;23;20624;-87
2023/10/20 14:51:42;;;;;;;3.10;2.80;;;6.00;99.90;;;;;;6250962;23;20179;-88
2023/10/20 14:54:08;;;;;;;3.20;2.90;;;5.70;99.90;;;;;;6253017;23;20207;-88
2023/10/20 14:56:36;;;;;;;3.25;3.05;;;5.70;99.90;;;;;;6263292;22;20179;-87
2023/10/20 14:59:03;;;;;;;3.17;2.88;;;6.00;99.90;;;;;;6264999;23;20536;-88
2023/10/20 15:01:30;;;;;;;3.03;2.72;;;5.80;99.90;;;;;;6259445;23;20231;-87
2023/10/20 15:03:57;;;;;;;3.40;3.10;;;5.80;99.90;;;;;;6258509;23;20205;-88
2023/10/20 15:06:25;;;;;;;3.80;3.50;;;5.70;99.90;;;;;;6269491;22;20165;-88